Time;durP1;ratioP1;P1;durP2;ratioP2;P2;SDS_P1;SDS_P2;PMS_P1;PMS_P2;Temp;Humidity;BMP_temperature;BMP_pressure;BME280_temperature;BME280_humidity;BME280_pressure;Samples;Min_cycle;Max_cycle;Signal;HPM_P1;HPM_P2
2023/07/02 00:02:25;;;;;;;;;;;;;;;18.65;82.20;97732.94;7368207;19;19926;-69
2023/07/02 00:04:52;;;;;;;;;;;;;;;18.65;81.73;97726.75;7371133;19;19929;-70
2023/07/02 00:07:19;;;;;;;;;;;;;;;18.56;81.96;97722.72;7371150;19;19978;-69
2023/07/02 00:09:46;;;;;;;;;;;;;;;18.32;82.60;97722.53;7369099;19;19934;-70
2023/07/02 00:12:13;;;;;;;;;;;;;;;18.22;82.71;97724.94;7373622;19;19970;-69
2023/07/02 00:14:40;;;;;;;;;;;;;;;18.22;82.39;97727.63;7377831;19;19922;-69
2023/07/02 00:17:07;;;;;;;;;;;;;;;18.24;82.27;97725.50;7374204;19;19914;-70
2023/07/02 00:19:33;;;;;;;;;;;;;;;18.23;82.92;97728.44;7373647;19;19914;-68
2023/07/02 00:22:00;;;;;;;;;;;;;;;18.17;82.92;97735.47;7373748;19;20223;-70
2023/07/02 00:24:27;;;;;;;;;;;;;;;18.16;82.67;97733.81;7373394;19;19934;-71
2023/07/02 00:26:53;;;;;;;;;;;;;;;18.05;82.62;97737.22;7373707;19;20345;-70
2023/07/02 00:29:20;;;;;;;;;;;;;;;18.01;82.51;97727.97;7379886;19;19929;-70
2023/07/02 00:31:47;;;;;;;;;;;;;;;17.95;82.75;97735.84;7376039;19;19919;-70
2023/07/02 00:34:13;;;;;;;;;;;;;;;17.94;82.47;97733.41;7374049;19;20258;-70
2023/07/02 00:36:41;;;;;;;;;;;;;;;17.88;82.49;97737.78;7373930;19;20358;-71
2023/07/02 00:39:09;;;;;;;;;;;;;;;17.88;82.58;97729.75;7374126;19;19968;-71
2023/07/02 00:41:35;;;;;;;;;;;;;;;17.79;83.20;97733.72;7372610;19;19918;-71
2023/07/02 00:44:02;;;;;;;;;;;;;;;17.93;83.29;97743.31;7376222;19;19923;-71
2023/07/02 00:46:29;;;;;;;;;;;;;;;17.97;83.50;97736.47;7373634;19;20278;-70
2023/07/02 00:48:55;;;;;;;;;;;;;;;17.99;83.41;97736.25;7374075;19;19935;-71
2023/07/02 00:51:26;;;;;;;;;;;;;;;18.05;83.53;97742.59;7373014;19;20614;-70
2023/07/02 00:53:54;;;;;;;;;;;;;;;18.13;82.61;97734.28;7378052;19;19926;-71
2023/07/02 00:56:21;;;;;;;;;;;;;;;18.16;82.58;97733.81;7373546;19;19919;-72
2023/07/02 00:58:50;;;;;;;;;;;;;;;18.16;82.78;97728.47;7374933;19;19919;-72
2023/07/02 01:01:17;;;;;;;;;;;;;;;18.28;82.25;97742.78;7376001;19;19979;-72
2023/07/02 01:04:00;;;;;;;;;;;;;;;18.19;82.92;97744.09;7373036;19;19929;-72
2023/07/02 01:06:28;;;;;;;;;;;;;;;18.18;82.41;97737.13;7374016;19;19922;-72
2023/07/02 01:09:00;;;;;;;;;;;;;;;18.14;82.33;97727.88;7375080;19;19918;-71
2023/07/02 01:11:28;;;;;;;;;;;;;;;18.18;82.51;97734.44;7374826;19;19919;-73
2023/07/02 01:13:55;;;;;;;;;;;;;;;18.11;81.80;97739.84;7376958;19;19926;-71
2023/07/02 01:16:22;;;;;;;;;;;;;;;18.08;82.02;97736.78;7375836;19;19918;-71
2023/07/02 01:18:50;;;;;;;;;;;;;;;18.02;82.58;97738.50;7375276;19;19919;-72
2023/07/02 01:21:18;;;;;;;;;;;;;;;18.17;81.50;97735.47;7374747;19;19919;-73
2023/07/02 01:23:46;;;;;;;;;;;;;;;18.05;82.02;97731.88;7372008;19;19925;-73
2023/07/02 01:26:12;;;;;;;;;;;;;;;18.06;82.17;97737.03;7370642;19;19926;-72
2023/07/02 01:28:39;;;;;;;;;;;;;;;17.98;82.64;97732.75;7372006;19;19918;-72
2023/07/02 01:31:06;;;;;;;;;;;;;;;17.98;82.65;97740.78;7373261;19;20451;-72
2023/07/02 01:33:33;;;;;;;;;;;;;;;18.03;82.57;97737.44;7372126;19;19921;-72
2023/07/02 01:35:59;;;;;;;;;;;;;;;17.97;82.53;97741.81;7374643;19;20196;-73
2023/07/02 01:38:27;;;;;;;;;;;;;;;17.98;82.11;97746.16;7374444;19;19941;-72
2023/07/02 01:40:53;;;;;;;;;;;;;;;17.92;81.99;97752.34;7364980;19;19925;-73
2023/07/02 01:43:21;;;;;;;;;;;;;;;17.84;81.67;97747.28;7372511;19;20467;-72
2023/07/02 01:45:48;;;;;;;;;;;;;;;17.76;82.43;97750.19;7370599;19;19919;-72
2023/07/02 01:48:14;;;;;;;;;;;;;;;17.82;82.43;97749.34;7375451;19;19914;-72
2023/07/02 01:50:41;;;;;;;;;;;;;;;17.85;82.60;97746.25;7373460;19;20449;-72
2023/07/02 01:53:08;;;;;;;;;;;;;;;17.94;82.13;97739.56;7374629;19;19927;-73
2023/07/02 01:55:34;;;;;;;;;;;;;;;17.85;82.12;97743.56;7373334;19;19919;-72
2023/07/02 01:58:01;;;;;;;;;;;;;;;17.95;81.35;97741.19;7371926;19;19950;-73
2023/07/02 02:00:27;;;;;;;;;;;;;;;17.88;82.05;97742.31;7372297;19;19915;-73
2023/07/02 02:02:54;;;;;;;;;;;;;;;17.82;81.58;97746.66;7373905;19;19942;-71
2023/07/02 02:05:21;;;;;;;;;;;;;;;17.82;81.76;97741.31;7370341;19;19938;-72
2023/07/02 02:07:49;;;;;;;;;;;;;;;17.84;81.85;97741.91;7369207;19;20584;-72
2023/07/02 02:10:16;;;;;;;;;;;;;;;17.85;82.02;97748.09;7374524;19;19919;-72
2023/07/02 02:12:43;;;;;;;;;;;;;;;17.84;81.83;97743.78;7369605;19;19926;-72
2023/07/02 02:15:13;;;;;;;;;;;;;;;17.86;81.61;97739.84;7371044;19;19925;-73
2023/07/02 02:17:40;;;;;;;;;;;;;;;17.85;81.44;97746.25;7374990;19;19937;-72
2023/07/02 02:20:08;;;;;;;;;;;;;;;17.76;81.64;97758.22;7374109;19;19964;-72
2023/07/02 02:22:35;;;;;;;;;;;;;;;17.80;81.51;97748.75;7367551;19;19926;-72
2023/07/02 02:25:03;;;;;;;;;;;;;;;17.81;81.51;97758.41;7374268;19;20325;-72
2023/07/02 02:27:30;;;;;;;;;;;;;;;17.83;81.77;97766.22;7373420;19;19922;-72
2023/07/02 02:29:57;;;;;;;;;;;;;;;17.88;81.47;97767.22;7371209;19;19933;-71
2023/07/02 02:32:24;;;;;;;;;;;;;;;17.80;82.06;97761.28;7370154;19;19990;-72
2023/07/02 02:34:51;;;;;;;;;;;;;;;17.85;81.57;97754.28;7370139;19;19997;-72
2023/07/02 02:37:18;;;;;;;;;;;;;;;17.97;81.05;97757.88;7361311;19;19919;-72
2023/07/02 02:39:45;;;;;;;;;;;;;;;17.96;80.68;97750.06;7370210;19;19953;-71
2023/07/02 02:42:13;;;;;;;;;;;;;;;18.08;80.81;97748.31;7343469;19;19954;-71
2023/07/02 02:44:39;;;;;;;;;;;;;;;17.94;81.55;97746.78;7363801;19;20364;-72
2023/07/02 02:47:06;;;;;;;;;;;;;;;18.11;80.92;97747.06;7371390;19;20277;-71
2023/07/02 02:49:37;;;;;;;;;;;;;;;17.94;81.59;97744.94;7369543;19;19923;-71
2023/07/02 02:52:04;;;;;;;;;;;;;;;17.76;82.63;97751.00;7368332;19;19926;-71
2023/07/02 02:54:31;;;;;;;;;;;;;;;17.75;82.63;97746.69;7371937;19;20273;-72
2023/07/02 02:56:57;;;;;;;;;;;;;;;17.61;83.10;97750.47;7373563;19;19919;-72
2023/07/02 02:59:25;;;;;;;;;;;;;;;17.65;83.48;97745.53;7369321;19;20401;-72
2023/07/02 03:01:51;;;;;;;;;;;;;;;17.67;83.35;97756.84;7368996;19;20276;-71
2023/07/02 03:04:18;;;;;;;;;;;;;;;17.64;83.42;97751.91;7363399;19;19927;-71
2023/07/02 03:06:45;;;;;;;;;;;;;;;17.67;83.20;97752.31;7370777;19;19951;-71
2023/07/02 03:09:12;;;;;;;;;;;;;;;17.66;83.28;97760.53;7366677;19;19929;-71
2023/07/02 03:11:39;;;;;;;;;;;;;;;17.63;82.97;97766.31;7369648;19;19925;-71
2023/07/02 03:14:05;;;;;;;;;;;;;;;17.69;82.90;97765.44;7371268;19;20314;-70
2023/07/02 03:16:33;;;;;;;;;;;;;;;17.70;83.05;97772.47;7367729;19;19929;-71
2023/07/02 03:19:00;;;;;;;;;;;;;;;17.70;83.26;97769.78;7372789;19;19931;-71
2023/07/02 03:21:26;;;;;;;;;;;;;;;17.81;82.88;97774.47;7372069;19;20761;-70
2023/07/02 03:23:53;;;;;;;;;;;;;;;17.87;81.85;97778.13;7371852;19;20556;-70
2023/07/02 03:26:21;;;;;;;;;;;;;;;17.70;82.57;97796.53;7370532;19;20369;-70
2023/07/02 03:28:48;;;;;;;;;;;;;;;17.40;82.60;97796.28;7371307;19;20009;-71
2023/07/02 03:31:14;;;;;;;;;;;;;;;17.36;81.59;97805.78;7369387;19;19915;-71
2023/07/02 03:33:41;;;;;;;;;;;;;;;17.15;82.29;97812.25;7370819;19;19919;-72
2023/07/02 03:36:08;;;;;;;;;;;;;;;17.13;82.09;97814.28;7369038;19;19914;-73
2023/07/02 03:38:34;;;;;;;;;;;;;;;17.13;82.38;97808.94;7368123;19;19917;-72
2023/07/02 03:41:01;;;;;;;;;;;;;;;17.09;82.63;97817.41;7372342;19;19919;-72
2023/07/02 03:43:28;;;;;;;;;;;;;;;16.90;81.79;97820.94;7372540;19;19914;-73
2023/07/02 03:45:54;;;;;;;;;;;;;;;16.95;81.96;97815.78;7365268;19;19923;-71
2023/07/02 03:48:21;;;;;;;;;;;;;;;17.01;82.32;97827.47;7367611;19;19926;-73
2023/07/02 03:50:48;;;;;;;;;;;;;;;17.06;81.27;97831.19;7369202;19;19922;-74
2023/07/02 03:53:15;;;;;;;;;;;;;;;16.96;82.98;97835.31;7371156;19;19949;-73
2023/07/02 03:55:41;;;;;;;;;;;;;;;17.03;82.39;97841.44;7368172;19;19926;-73
2023/07/02 03:58:08;;;;;;;;;;;;;;;16.97;82.65;97837.78;7371502;19;20349;-74
2023/07/02 04:00:35;;;;;;;;;;;;;;;16.96;81.25;97836.13;7370011;19;20340;-74
2023/07/02 04:03:03;;;;;;;;;;;;;;;16.84;81.87;97845.81;7369911;19;20357;-73
2023/07/02 04:05:29;;;;;;;;;;;;;;;16.83;82.12;97845.00;7371517;19;19922;-73
2023/07/02 04:07:56;;;;;;;;;;;;;;;16.69;82.44;97851.34;7373902;19;19943;-73
2023/07/02 04:10:23;;;;;;;;;;;;;;;16.89;82.16;97851.34;7368923;19;19934;-72
2023/07/02 04:12:49;;;;;;;;;;;;;;;16.80;82.18;97857.97;7366664;19;20646;-71
2023/07/02 04:15:16;;;;;;;;;;;;;;;16.68;79.83;97860.41;7372670;19;20285;-72
2023/07/02 04:17:43;;;;;;;;;;;;;;;16.66;81.55;97862.44;7371243;19;20276;-71
2023/07/02 04:20:10;;;;;;;;;;;;;;;16.65;81.44;97871.50;7365957;19;22277;-72
2023/07/02 04:22:36;;;;;;;;;;;;;;;16.53;79.94;97865.94;7368432;19;20324;-71
2023/07/02 04:25:03;;;;;;;;;;;;;;;16.43;82.64;97863.72;7371863;19;19922;-72
2023/07/02 04:27:50;;;;;;;;;;;;;;;16.79;81.57;97862.47;7365891;19;19927;-72
2023/07/02 04:30:18;;;;;;;;;;;;;;;16.86;80.51;97860.63;7370802;19;19919;-72
2023/07/02 04:32:44;;;;;;;;;;;;;;;16.70;82.40;97862.88;7369670;19;19959;-73
2023/07/02 04:35:11;;;;;;;;;;;;;;;16.80;81.91;97865.97;7370245;19;20278;-72
2023/07/02 04:37:38;;;;;;;;;;;;;;;16.88;81.79;97868.44;7365755;19;19933;-71
2023/07/02 04:40:12;;;;;;;;;;;;;;;17.01;81.46;97873.75;7365880;19;19919;-73
2023/07/02 04:42:39;;;;;;;;;;;;;;;17.00;81.56;97866.75;7361280;19;19929;-72
2023/07/02 04:45:06;;;;;;;;;;;;;;;17.03;82.21;97860.16;7368087;19;19982;-71
2023/07/02 04:47:32;;;;;;;;;;;;;;;17.18;81.36;97854.56;7368296;19;20848;-72
2023/07/02 04:49:59;;;;;;;;;;;;;;;17.23;81.37;97862.78;7367662;19;19941;-71
2023/07/02 04:52:26;;;;;;;;;;;;;;;17.13;81.94;97873.91;7369926;19;19929;-71
2023/07/02 04:54:53;;;;;;;;;;;;;;;17.13;82.20;97876.59;7363532;19;19919;-72
2023/07/02 04:57:19;;;;;;;;;;;;;;;17.19;81.36;97882.94;7365883;19;19931;-72
2023/07/02 04:59:46;;;;;;;;;;;;;;;17.30;80.57;97882.31;7371414;19;19922;-72
2023/07/02 05:02:13;;;;;;;;;;;;;;;17.26;81.00;97883.75;7375837;19;19922;-71
2023/07/02 05:04:40;;;;;;;;;;;;;;;17.16;81.46;97891.38;7376150;19;20017;-71
2023/07/02 05:07:06;;;;;;;;;;;;;;;17.37;81.15;97890.28;7378007;19;19918;-70
2023/07/02 05:09:33;;;;;;;;;;;;;;;17.37;81.12;97891.09;7377265;19;19915;-71
2023/07/02 05:12:00;;;;;;;;;;;;;;;17.34;80.42;97886.19;7378489;19;19946;-71
2023/07/02 05:14:26;;;;;;;;;;;;;;;17.27;80.82;97893.41;7375451;19;19946;-70
2023/07/02 05:16:53;;;;;;;;;;;;;;;17.42;81.06;97896.66;7367757;19;19923;-71
2023/07/02 05:19:20;;;;;;;;;;;;;;;17.62;81.08;97898.44;7376534;19;19926;-71
2023/07/02 05:21:46;;;;;;;;;;;;;;;17.96;80.25;97903.44;7377945;19;20347;-70
2023/07/02 05:24:13;;;;;;;;;;;;;;;17.89;78.08;97899.16;7376690;19;19930;-70
2023/07/02 05:26:40;;;;;;;;;;;;;;;17.79;80.14;97904.97;7374356;19;19919;-71
2023/07/02 05:29:07;;;;;;;;;;;;;;;17.89;79.47;97907.19;7376396;19;19919;-71
2023/07/02 05:31:36;;;;;;;;;;;;;;;17.87;78.59;97904.72;7372389;19;19927;-71
2023/07/02 05:34:03;;;;;;;;;;;;;;;17.84;79.10;97918.53;7379972;19;20569;-71
2023/07/02 05:36:30;;;;;;;;;;;;;;;17.82;79.32;97917.91;7376211;19;19927;-71
2023/07/02 05:38:56;;;;;;;;;;;;;;;17.83;79.43;97924.09;7378402;19;19910;-71
2023/07/02 05:41:23;;;;;;;;;;;;;;;17.61;79.73;97926.19;7376768;19;19927;-71
2023/07/02 05:43:51;;;;;;;;;;;;;;;17.70;79.29;97927.63;7375271;19;20262;-71
2023/07/02 05:46:18;;;;;;;;;;;;;;;17.62;79.53;97926.00;7377189;19;19951;-71
2023/07/02 05:48:44;;;;;;;;;;;;;;;17.68;77.93;97932.34;7375634;19;19929;-71
2023/07/02 05:51:11;;;;;;;;;;;;;;;17.78;75.34;97927.38;7373455;19;19919;-69
2023/07/02 05:53:38;;;;;;;;;;;;;;;17.75;76.93;97930.47;7370406;19;19923;-69
2023/07/02 05:56:05;;;;;;;;;;;;;;;17.93;77.52;97927.97;7372914;19;20344;-69
2023/07/02 05:58:31;;;;;;;;;;;;;;;18.06;76.93;97926.22;7371863;19;19919;-70
2023/07/02 06:01:14;;;;;;;;;;;;;;;18.20;77.29;97925.13;7369726;19;19919;-70
2023/07/02 06:03:42;;;;;;;;;;;;;;;18.18;77.56;97932.56;7373282;19;19923;-69
2023/07/02 06:06:08;;;;;;;;;;;;;;;18.36;73.88;97938.00;7372917;19;19929;-69
2023/07/02 06:08:35;;;;;;;;;;;;;;;18.50;74.28;97932.53;7373608;19;19990;-69
2023/07/02 06:11:02;;;;;;;;;;;;;;;18.59;73.35;97937.44;7372890;19;19925;-69
2023/07/02 06:13:28;;;;;;;;;;;;;;;18.75;71.79;97936.09;7375492;19;19919;-70
2023/07/02 06:15:55;;;;;;;;;;;;;;;19.15;72.75;97949.13;7378074;19;20389;-69
2023/07/02 06:18:22;;;;;;;;;;;;;;;19.28;71.88;97943.63;7380983;19;20384;-70
2023/07/02 06:20:50;;;;;;;;;;;;;;;19.43;70.18;97940.59;7379053;19;19947;-68
2023/07/02 06:23:17;;;;;;;;;;;;;;;19.62;71.17;97941.41;7377922;19;19934;-69
2023/07/02 06:25:44;;;;;;;;;;;;;;;19.86;69.12;97936.22;7373291;19;19921;-69
2023/07/02 06:28:10;;;;;;;;;;;;;;;20.12;67.14;97943.09;7379596;19;19918;-69
2023/07/02 06:30:37;;;;;;;;;;;;;;;19.77;68.03;97948.28;7376940;19;19926;-68
2023/07/02 06:33:04;;;;;;;;;;;;;;;19.51;66.26;97939.50;7377859;19;19922;-69
2023/07/02 06:35:30;;;;;;;;;;;;;;;19.82;65.57;97940.38;7376527;19;19915;-69
2023/07/02 06:37:57;;;;;;;;;;;;;;;19.81;65.70;97944.94;7374706;19;19933;-69
2023/07/02 06:40:24;;;;;;;;;;;;;;;19.54;65.68;97955.13;7378647;19;19915;-70
2023/07/02 06:42:50;;;;;;;;;;;;;;;19.59;66.80;97947.25;7375375;19;19939;-69
2023/07/02 06:45:17;;;;;;;;;;;;;;;19.69;64.81;97955.59;7373776;19;19952;-69
2023/07/02 06:47:44;;;;;;;;;;;;;;;19.63;65.17;97948.41;7369699;19;20991;-69
2023/07/02 06:50:11;;;;;;;;;;;;;;;18.97;66.59;97949.09;7373010;19;19934;-68
2023/07/02 06:52:37;;;;;;;;;;;;;;;19.32;66.38;97953.91;7371042;19;19918;-69
2023/07/02 06:55:04;;;;;;;;;;;;;;;19.42;64.63;97949.69;7375106;19;19990;-69
2023/07/02 06:57:31;;;;;;;;;;;;;;;19.56;62.37;97955.72;7372471;19;19921;-69
2023/07/02 07:00:00;;;;;;;;;;;;;;;19.76;65.27;97957.41;7371931;19;19923;-69
2023/07/02 07:02:28;;;;;;;;;;;;;;;19.71;64.45;97950.81;7370841;19;19933;-69
2023/07/02 07:04:54;;;;;;;;;;;;;;;19.71;63.82;97950.81;7371718;19;19943;-70
2023/07/02 07:07:21;;;;;;;;;;;;;;;19.94;63.60;97950.13;7375450;19;20618;-69
2023/07/02 07:09:48;;;;;;;;;;;;;;;20.18;65.09;97953.72;7374000;19;19923;-69
2023/07/02 07:12:15;;;;;;;;;;;;;;;20.13;63.12;97948.22;7374423;19;19918;-69
2023/07/02 07:14:42;;;;;;;;;;;;;;;20.44;62.46;97949.03;7370265;19;20266;-69
2023/07/02 07:17:08;;;;;;;;;;;;;;;20.42;62.80;97951.13;7373741;19;19941;-69
2023/07/02 07:19:35;;;;;;;;;;;;;;;20.37;60.45;97946.44;7373858;19;19923;-69
2023/07/02 07:22:02;;;;;;;;;;;;;;;20.50;61.63;97950.81;7373540;19;20531;-68
2023/07/02 07:24:28;;;;;;;;;;;;;;;20.26;59.80;97943.72;7375585;19;20368;-69
2023/07/02 07:26:55;;;;;;;;;;;;;;;20.76;59.58;97951.47;7369631;19;19923;-69
2023/07/02 07:29:22;;;;;;;;;;;;;;;20.97;61.12;97948.22;7379160;19;20359;-70
2023/07/02 07:31:48;;;;;;;;;;;;;;;20.79;60.12;97945.63;7374248;19;20020;-71
2023/07/02 07:34:15;;;;;;;;;;;;;;;20.83;58.23;97946.81;7376524;19;19927;-68
2023/07/02 07:36:42;;;;;;;;;;;;;;;20.54;61.14;97957.41;7368790;19;20583;-70
2023/07/02 07:39:08;;;;;;;;;;;;;;;20.55;61.55;97952.84;7374307;19;19923;-69
2023/07/02 07:41:35;;;;;;;;;;;;;;;20.70;59.01;97953.22;7373741;19;19947;-69
2023/07/02 07:44:02;;;;;;;;;;;;;;;21.01;56.94;97954.78;7373392;19;20793;-69
2023/07/02 07:46:29;;;;;;;;;;;;;;;20.80;58.23;97956.16;7371560;19;19917;-69
2023/07/02 07:48:55;;;;;;;;;;;;;;;20.75;55.57;97950.66;7372327;19;20267;-71
2023/07/02 07:51:22;;;;;;;;;;;;;;;20.50;58.46;97958.84;7372611;19;19958;-68
2023/07/02 07:53:49;;;;;;;;;;;;;;;20.65;54.97;97960.34;7372737;19;19930;-70
2023/07/02 07:56:15;;;;;;;;;;;;;;;20.60;53.47;97951.09;7373519;19;20555;-69
2023/07/02 07:58:42;;;;;;;;;;;;;;;20.80;54.94;97958.00;7372038;19;19939;-70
2023/07/02 08:01:09;;;;;;;;;;;;;;;20.84;53.61;97953.81;7371929;19;19941;-69
2023/07/02 08:03:37;;;;;;;;;;;;;;;20.71;53.37;97954.84;7373201;19;19933;-70
2023/07/02 08:06:04;;;;;;;;;;;;;;;20.75;53.65;97957.91;7368974;19;19940;-69
2023/07/02 08:08:30;;;;;;;;;;;;;;;20.98;52.94;97965.97;7370806;19;19922;-68
2023/07/02 08:10:57;;;;;;;;;;;;;;;20.49;54.04;97962.59;7370287;19;19923;-70
2023/07/02 08:13:24;;;;;;;;;;;;;;;20.94;57.27;97955.94;7375250;19;19923;-69
2023/07/02 08:15:50;;;;;;;;;;;;;;;21.20;51.66;97958.19;7372000;19;19923;-69
2023/07/02 08:18:17;;;;;;;;;;;;;;;20.91;53.50;97964.47;7372816;19;19930;-69
2023/07/02 08:20:44;;;;;;;;;;;;;;;21.37;52.37;97960.97;7367158;19;19922;-68
2023/07/02 08:23:11;;;;;;;;;;;;;;;21.64;51.60;97953.25;7371479;19;20539;-69
2023/07/02 08:25:38;;;;;;;;;;;;;;;21.43;53.99;97959.22;7372688;19;19928;-69
2023/07/02 08:28:05;;;;;;;;;;;;;;;21.38;53.31;97961.81;7368445;19;19934;-69
2023/07/02 08:30:31;;;;;;;;;;;;;;;21.86;51.70;97969.56;7373150;19;20006;-69
2023/07/02 08:32:58;;;;;;;;;;;;;;;22.11;51.25;97960.34;7365676;19;19933;-68
2023/07/02 08:35:25;;;;;;;;;;;;;;;22.07;48.73;97957.34;7377614;19;19922;-70
2023/07/02 08:37:51;;;;;;;;;;;;;;;22.10;53.02;97959.53;7375759;19;19911;-68
2023/07/02 08:40:18;;;;;;;;;;;;;;;22.10;50.93;97954.16;7375630;19;19927;-69
2023/07/02 08:42:47;;;;;;;;;;;;;;;22.02;51.16;97959.94;7374185;19;19927;-69
2023/07/02 08:45:14;;;;;;;;;;;;;;;22.22;49.75;97958.69;7378533;19;19918;-69
2023/07/02 08:47:41;;;;;;;;;;;;;;;22.29;50.83;97960.19;7378448;19;19919;-69
2023/07/02 08:50:08;;;;;;;;;;;;;;;22.55;48.38;97955.25;7380876;19;19923;-68
2023/07/02 08:52:34;;;;;;;;;;;;;;;22.31;49.35;97957.28;7378164;19;20080;-69
2023/07/02 08:55:01;;;;;;;;;;;;;;;22.41;50.72;97964.69;7372458;19;19926;-69
2023/07/02 08:57:28;;;;;;;;;;;;;;;22.87;48.65;97954.72;7377417;19;19925;-69
2023/07/02 08:59:59;;;;;;;;;;;;;;;22.32;50.58;97958.88;7365368;19;20212;-69
2023/07/02 09:02:37;;;;;;;;;;;;;;;22.74;48.44;97951.28;7375666;19;20410;-69
2023/07/02 09:05:04;;;;;;;;;;;;;;;22.50;50.29;97957.88;7378376;19;21081;-69
2023/07/02 09:07:32;;;;;;;;;;;;;;;23.08;46.18;97959.38;7378266;19;20636;-71
2023/07/02 09:09:59;;;;;;;;;;;;;;;23.14;43.92;97947.59;7377489;19;19925;-69
2023/07/02 09:12:27;;;;;;;;;;;;;;;23.21;47.50;97950.94;7375034;19;19933;-72
2023/07/02 09:14:59;;;;;;;;;;;;;;;23.44;46.47;97946.41;7378560;19;19982;-69
2023/07/02 09:17:34;;;;;;;;;;;;;;;23.39;47.69;97952.56;7373942;19;21428;-69
2023/07/02 09:20:04;;;;;;;;;;;;;;;24.18;47.11;97948.69;7374642;19;19939;-70
2023/07/02 09:22:37;;;;;;;;;;;;;;;24.87;42.62;97944.50;7375845;19;19937;-70
2023/07/02 09:25:04;;;;;;;;;;;;;;;25.00;43.48;97951.34;7376202;19;20021;-70
2023/07/02 09:27:41;;;;;;;;;;;;;;;24.75;41.38;97950.09;7377354;19;19919;-70
2023/07/02 09:30:15;;;;;;;;;;;;;;;24.61;42.32;97956.97;7373889;19;20640;-70
2023/07/02 09:32:44;;;;;;;;;;;;;;;25.40;40.54;97954.34;7372898;19;20404;-69
2023/07/02 09:35:11;;;;;;;;;;;;;;;24.74;42.03;97951.94;7377746;19;19943;-69
2023/07/02 09:37:38;;;;;;;;;;;;;;;24.64;42.80;97946.44;7378854;19;19953;-69
2023/07/02 09:40:07;;;;;;;;;;;;;;;24.20;41.94;97951.97;7374284;19;20409;-70
2023/07/02 09:42:35;;;;;;;;;;;;;;;24.18;40.19;97945.19;7372846;19;19922;-71
2023/07/02 09:45:02;;;;;;;;;;;;;;;24.32;43.39;97944.50;7371646;19;19922;-69
2023/07/02 09:47:29;;;;;;;;;;;;;;;24.52;42.80;97943.94;7373475;19;20546;-69
2023/07/02 09:50:03;;;;;;;;;;;;;;;24.38;40.94;97948.09;7374828;19;20019;-70
2023/07/02 09:52:30;;;;;;;;;;;;;;;24.24;40.46;97941.44;7373036;19;19951;-69
2023/07/02 09:54:57;;;;;;;;;;;;;;;24.21;42.83;97936.56;7374057;19;19922;-69
2023/07/02 09:57:24;;;;;;;;;;;;;;;24.33;42.61;97945.34;7379123;19;19944;-71
2023/07/02 09:59:52;;;;;;;;;;;;;;;24.56;41.60;97938.00;7370023;19;19940;-70
2023/07/02 10:02:22;;;;;;;;;;;;;;;25.09;41.20;97937.09;7375056;19;20560;-69
2023/07/02 10:04:54;;;;;;;;;;;;;;;25.58;41.80;97933.31;7367212;19;19963;-70
2023/07/02 10:07:28;;;;;;;;;;;;;;;25.11;39.94;97931.41;7358487;19;19930;-70
2023/07/02 10:09:55;;;;;;;;;;;;;;;25.45;41.50;97925.69;7363848;19;19938;-69
2023/07/02 10:12:24;;;;;;;;;;;;;;;25.50;40.31;97933.81;7370486;19;19925;-70
2023/07/02 10:14:52;;;;;;;;;;;;;;;25.00;39.61;97927.81;7357661;19;19914;-70
2023/07/02 10:17:28;;;;;;;;;;;;;;;24.61;41.29;97935.34;7370291;19;20039;-70
2023/07/02 10:19:56;;;;;;;;;;;;;;;24.78;41.16;97927.94;7365334;19;20403;-70
2023/07/02 10:22:23;;;;;;;;;;;;;;;23.75;42.08;97928.75;7371230;19;19926;-71
2023/07/02 10:25:05;;;;;;;;;;;;;;;24.34;42.55;97925.34;7368720;19;19935;-70
2023/07/02 10:27:35;;;;;;;;;;;;;;;24.49;42.99;97919.28;7371754;19;19933;-70
2023/07/02 10:30:03;;;;;;;;;;;;;;;24.61;40.51;97916.41;7368867;19;19926;-69
2023/07/02 10:32:30;;;;;;;;;;;;;;;24.63;42.70;97928.59;7370511;19;19918;-70
2023/07/02 10:34:58;;;;;;;;;;;;;;;24.47;40.10;97919.53;7370747;19;19925;-70
2023/07/02 10:37:25;;;;;;;;;;;;;;;24.34;41.95;97925.34;7372360;19;19919;-70
2023/07/02 10:39:52;;;;;;;;;;;;;;;24.16;43.14;97923.00;7369066;19;19919;-70
2023/07/02 10:42:19;;;;;;;;;;;;;;;24.13;42.64;97924.31;7375545;19;19919;-71
2023/07/02 10:44:51;;;;;;;;;;;;;;;24.28;43.39;97921.78;7372856;19;20672;-70
2023/07/02 10:47:19;;;;;;;;;;;;;;;24.81;43.11;97908.47;7373729;19;19927;-70
2023/07/02 10:49:46;;;;;;;;;;;;;;;24.96;40.99;97916.69;7367254;19;20341;-71
2023/07/02 10:52:13;;;;;;;;;;;;;;;24.69;41.80;97913.22;7371738;19;19926;-69
2023/07/02 10:54:40;;;;;;;;;;;;;;;24.78;39.84;97910.84;7370991;19;19929;-70
2023/07/02 10:57:07;;;;;;;;;;;;;;;24.63;42.39;97916.97;7368636;19;19929;-70
2023/07/02 10:59:34;;;;;;;;;;;;;;;24.36;42.13;97928.59;7373182;19;20206;-69
2023/07/02 11:02:03;;;;;;;;;;;;;;;24.04;42.70;97912.31;7366661;19;20656;-69
2023/07/02 11:04:30;;;;;;;;;;;;;;;24.09;44.08;97915.91;7372467;19;20398;-69
2023/07/02 11:06:57;;;;;;;;;;;;;;;24.16;44.57;97923.81;7363490;19;19915;-70
2023/07/02 11:09:24;;;;;;;;;;;;;;;23.45;51.61;97929.16;7371422;19;19923;-70
2023/07/02 11:11:57;;;;;;;;;;;;;;;23.36;46.88;97922.56;7367458;19;19957;-69
2023/07/02 11:14:31;;;;;;;;;;;;;;;23.49;43.85;97916.78;7373757;19;19923;-70
2023/07/02 11:16:58;;;;;;;;;;;;;;;23.40;44.46;97920.97;7368168;19;19998;-70
2023/07/02 11:19:25;;;;;;;;;;;;;;;23.85;43.52;97918.06;7373693;19;19947;-69
2023/07/02 11:21:53;;;;;;;;;;;;;;;24.07;43.20;97918.03;7366672;19;19923;-70
2023/07/02 11:24:30;;;;;;;;;;;;;;;23.99;43.14;97915.00;7368829;19;19915;-70
2023/07/02 11:26:57;;;;;;;;;;;;;;;24.50;40.12;97910.09;7364032;19;19935;-70
2023/07/02 11:29:23;;;;;;;;;;;;;;;24.61;39.54;97902.88;7370628;19;19921;-71
2023/07/02 11:31:50;;;;;;;;;;;;;;;25.01;40.33;97906.97;7365397;19;19926;-69
2023/07/02 11:34:18;;;;;;;;;;;;;;;25.20;39.51;97902.81;7370776;19;19926;-70
2023/07/02 11:36:47;;;;;;;;;;;;;;;25.21;35.77;97896.31;7371676;19;19926;-70
2023/07/02 11:39:17;;;;;;;;;;;;;;;25.23;39.88;97904.97;7373310;19;20208;-70
2023/07/02 11:41:44;;;;;;;;;;;;;;;25.15;38.54;97908.16;7365832;19;19953;-70
2023/07/02 11:44:11;;;;;;;;;;;;;;;25.74;39.37;97907.09;7364249;19;19927;-70
2023/07/02 11:46:37;;;;;;;;;;;;;;;25.52;37.34;97901.88;7367491;19;19929;-70
2023/07/02 11:49:04;;;;;;;;;;;;;;;25.75;38.40;97912.28;7361421;19;19923;-70
2023/07/02 11:51:31;;;;;;;;;;;;;;;26.18;40.63;97898.59;7367893;19;19919;-70
2023/07/02 11:53:58;;;;;;;;;;;;;;;25.98;39.68;97902.06;7364693;19;20400;-69
2023/07/02 11:56:24;;;;;;;;;;;;;;;25.46;39.56;97902.91;7369542;19;19935;-71
2023/07/02 11:58:51;;;;;;;;;;;;;;;25.35;39.51;97896.63;7356062;19;20448;-69
2023/07/02 12:01:17;;;;;;;;;;;;;;;25.73;37.35;97886.53;7367044;19;20471;-68
2023/07/02 12:03:45;;;;;;;;;;;;;;;25.62;39.45;97894.63;7369144;19;19943;-68
2023/07/02 12:06:12;;;;;;;;;;;;;;;25.60;38.44;97898.66;7366875;19;19944;-68
2023/07/02 12:08:39;;;;;;;;;;;;;;;25.37;40.91;97895.31;7366337;19;19933;-69
2023/07/02 12:11:06;;;;;;;;;;;;;;;24.85;40.58;97890.63;7373960;19;19929;-69
2023/07/02 12:13:32;;;;;;;;;;;;;;;25.17;40.22;97893.31;7375669;19;19939;-69
2023/07/02 12:15:59;;;;;;;;;;;;;;;25.50;39.72;97891.31;7366305;19;19970;-69
2023/07/02 12:18:26;;;;;;;;;;;;;;;25.71;39.92;97888.69;7373917;19;19935;-72
2023/07/02 12:20:52;;;;;;;;;;;;;;;25.75;36.88;97887.88;7372260;19;19946;-69
2023/07/02 12:23:19;;;;;;;;;;;;;;;25.62;38.02;97893.81;7377428;19;20637;-69
2023/07/02 12:25:46;;;;;;;;;;;;;;;25.40;37.82;97892.06;7372191;19;19930;-68
2023/07/02 12:28:14;;;;;;;;;;;;;;;25.10;37.75;97884.56;7372257;19;19922;-69
2023/07/02 12:30:41;;;;;;;;;;;;;;;25.14;38.29;97891.06;7374156;19;19915;-69
2023/07/02 12:33:08;;;;;;;;;;;;;;;24.99;36.71;97882.88;7373105;19;19957;-69
2023/07/02 12:35:34;;;;;;;;;;;;;;;25.29;38.61;97881.47;7376760;19;19926;-69
2023/07/02 12:38:03;;;;;;;;;;;;;;;25.57;37.30;97891.06;7368814;19;19919;-68
2023/07/02 12:40:30;;;;;;;;;;;;;;;25.44;37.21;97883.44;7378008;19;20402;-69
2023/07/02 12:42:57;;;;;;;;;;;;;;;25.27;34.97;97884.41;7368525;19;19923;-69
2023/07/02 12:45:24;;;;;;;;;;;;;;;25.63;36.47;97879.97;7374136;19;19914;-69
2023/07/02 12:47:50;;;;;;;;;;;;;;;25.58;36.32;97866.41;7364461;19;20416;-69
2023/07/02 12:50:18;;;;;;;;;;;;;;;25.91;36.75;97882.53;7374704;19;19922;-69